sensor_id;sensor_type;location;lat;lon;timestamp;pressure;altitude;pressure_sealevel;temperature;humidity
19797;BME280;10058;57.654;12.044;2023-02-23T00:00:52;100790.97;;;4.41;100.00
19797;BME280;10058;57.654;12.044;2023-02-23T00:03:17;100784.88;;;4.59;100.00
19797;BME280;10058;57.654;12.044;2023-02-23T00:09:05;100786.63;;;4.42;100.00
19797;BME280;10058;57.654;12.044;2023-02-23T00:11:34;100777.97;;;4.43;100.00
19797;BME280;10058;57.654;12.044;2023-02-23T00:13:59;100766.03;;;4.48;100.00
19797;BME280;10058;57.654;12.044;2023-02-23T00:16:27;100769.28;;;4.44;100.00
19797;BME280;10058;57.654;12.044;2023-02-23T00:18:57;100772.41;;;4.37;100.00
19797;BME280;10058;57.654;12.044;2023-02-23T00:21:25;100763.72;;;4.38;100.00
19797;BME280;10058;57.654;12.044;2023-02-23T00:23:58;100758.59;;;4.39;100.00
19797;BME280;10058;57.654;12.044;2023-02-23T00:29:47;100753.28;;;4.38;100.00
19797;BME280;10058;57.654;12.044;2023-02-23T00:32:14;100755.22;;;4.42;100.00
19797;BME280;10058;57.654;12.044;2023-02-23T00:34:46;100757.50;;;4.52;100.00
19797;BME280;10058;57.654;12.044;2023-02-23T00:37:16;100744.94;;;4.45;100.00
19797;BME280;10058;57.654;12.044;2023-02-23T00:39:42;100746.91;;;4.33;100.00
19797;BME280;10058;57.654;12.044;2023-02-23T00:42:07;100741.34;;;4.43;100.00
19797;BME280;10058;57.654;12.044;2023-02-23T00:44:32;100740.91;;;4.35;100.00
19797;BME280;10058;57.654;12.044;2023-02-23T00:46:59;100731.03;;;4.46;100.00
19797;BME280;10058;57.654;12.044;2023-02-23T00:49:25;100742.56;;;4.49;100.00
19797;BME280;10058;57.654;12.044;2023-02-23T00:51:50;100730.03;;;4.44;100.00
19797;BME280;10058;57.654;12.044;2023-02-23T00:54:17;100726.19;;;4.37;100.00
19797;BME280;10058;57.654;12.044;2023-02-23T00:56:43;100723.03;;;4.27;100.00
19797;BME280;10058;57.654;12.044;2023-02-23T00:59:09;100715.84;;;4.23;100.00
19797;BME280;10058;57.654;12.044;2023-02-23T01:01:35;100715.97;;;4.08;100.00
19797;BME280;10058;57.654;12.044;2023-02-23T01:04:06;100707.34;;;4.27;100.00
19797;BME280;10058;57.654;12.044;2023-02-23T01:09:53;100704.44;;;4.04;100.00
19797;BME280;10058;57.654;12.044;2023-02-23T01:12:18;100695.78;;;4.05;100.00
19797;BME280;10058;57.654;12.044;2023-02-23T01:14:43;100708.94;;;4.07;100.00
19797;BME280;10058;57.654;12.044;2023-02-23T01:17:10;100707.56;;;3.97;100.00
19797;BME280;10058;57.654;12.044;2023-02-23T01:19:35;100698.91;;;3.98;100.00
19797;BME280;10058;57.654;12.044;2023-02-23T01:22:01;100695.69;;;4.04;100.00
19797;BME280;10058;57.654;12.044;2023-02-23T01:27:48;100691.72;;;3.94;100.00
19797;BME280;10058;57.654;12.044;2023-02-23T01:30:13;100689.56;;;3.87;100.00
19797;BME280;10058;57.654;12.044;2023-02-23T01:32:39;100687.47;;;3.80;100.00
19797;BME280;10058;57.654;12.044;2023-02-23T01:35:08;100682.97;;;3.77;100.00
19797;BME280;10058;57.654;12.044;2023-02-23T01:37:35;100675.53;;;3.85;100.00
19797;BME280;10058;57.654;12.044;2023-02-23T01:40:02;100673.06;;;3.88;100.00
19797;BME280;10058;57.654;12.044;2023-02-23T01:42:36;100666.63;;;3.65;100.00
19797;BME280;10058;57.654;12.044;2023-02-23T01:48:35;100661.00;;;3.74;100.00
19797;BME280;10058;57.654;12.044;2023-02-23T01:54:31;100648.75;;;3.73;100.00
19797;BME280;10058;57.654;12.044;2023-02-23T01:57:00;100640.09;;;3.74;100.00
19797;BME280;10058;57.654;12.044;2023-02-23T01:59:36;100632.44;;;3.61;100.00
19797;BME280;10058;57.654;12.044;2023-02-23T02:02:03;100651.53;;;3.60;100.00
19797;BME280;10058;57.654;12.044;2023-02-23T02:04:29;100636.25;;;3.67;100.00
19797;BME280;10058;57.654;12.044;2023-02-23T02:10:19;100624.06;;;3.68;100.00
19797;BME280;10058;57.654;12.044;2023-02-23T02:13:04;100624.41;;;3.74;100.00
19797;BME280;10058;57.654;12.044;2023-02-23T02:15:32;100629.47;;;3.71;100.00
19797;BME280;10058;57.654;12.044;2023-02-23T02:18:23;100621.78;;;3.74;100.00
19797;BME280;10058;57.654;12.044;2023-02-23T02:21:34;100618.28;;;3.73;100.00
19797;BME280;10058;57.654;12.044;2023-02-23T02:30:40;100608.38;;;3.68;100.00
19797;BME280;10058;57.654;12.044;2023-02-23T02:33:37;100592.53;;;3.65;100.00
19797;BME280;10058;57.654;12.044;2023-02-23T02:36:42;100589.44;;;3.72;100.00
19797;BME280;10058;57.654;12.044;2023-02-23T02:39:21;100583.59;;;3.60;100.00
19797;BME280;10058;57.654;12.044;2023-02-23T02:51:25;100568.22;;;3.66;100.00
19797;BME280;10058;57.654;12.044;2023-02-23T02:54:08;100569.25;;;3.69;100.00
19797;BME280;10058;57.654;12.044;2023-02-23T02:56:37;100575.72;;;3.76;100.00
19797;BME280;10058;57.654;12.044;2023-02-23T02:59:11;100568.38;;;3.69;100.00
19797;BME280;10058;57.654;12.044;2023-02-23T03:01:56;100574.38;;;3.84;100.00
19797;BME280;10058;57.654;12.044;2023-02-23T03:04:41;100569.16;;;3.84;100.00
19797;BME280;10058;57.654;12.044;2023-02-23T03:07:46;100567.34;;;3.83;100.00
19797;BME280;10058;57.654;12.044;2023-02-23T03:10:42;100550.72;;;3.65;100.00
19797;BME280;10058;57.654;12.044;2023-02-23T03:20:05;100552.28;;;3.77;100.00
19797;BME280;10058;57.654;12.044;2023-02-23T03:29:39;100543.91;;;3.84;100.00
19797;BME280;10058;57.654;12.044;2023-02-23T03:32:49;100536.75;;;3.80;100.00
19797;BME280;10058;57.654;12.044;2023-02-23T03:35:44;100539.28;;;3.79;100.00
19797;BME280;10058;57.654;12.044;2023-02-23T03:38:42;100558.69;;;3.84;100.00
19797;BME280;10058;57.654;12.044;2023-02-23T03:41:29;100556.91;;;3.83;100.00
19797;BME280;10058;57.654;12.044;2023-02-23T03:44:18;100553.31;;;3.81;100.00
19797;BME280;10058;57.654;12.044;2023-02-23T03:50:32;100561.88;;;3.95;100.00
19797;BME280;10058;57.654;12.044;2023-02-23T03:53:32;100553.34;;;3.99;100.00
19797;BME280;10058;57.654;12.044;2023-02-23T03:56:20;100553.94;;;3.93;100.00
19797;BME280;10058;57.654;12.044;2023-02-23T03:59:09;100543.50;;;3.93;100.00
19797;BME280;10058;57.654;12.044;2023-02-23T04:01:55;100536.63;;;3.95;100.00
19797;BME280;10058;57.654;12.044;2023-02-23T04:04:41;100530.50;;;3.95;100.00
19797;BME280;10058;57.654;12.044;2023-02-23T04:07:28;100537.53;;;3.96;100.00
19797;BME280;10058;57.654;12.044;2023-02-23T04:10:12;100526.16;;;3.95;100.00
19797;BME280;10058;57.654;12.044;2023-02-23T04:13:13;100523.00;;;4.02;100.00
19797;BME280;10058;57.654;12.044;2023-02-23T04:18:19;100517.78;;;4.02;100.00
19797;BME280;10058;57.654;12.044;2023-02-23T04:20:46;100515.31;;;4.05;100.00
19797;BME280;10058;57.654;12.044;2023-02-23T04:23:12;100505.44;;;4.00;100.00
19797;BME280;10058;57.654;12.044;2023-02-23T04:28:58;100510.91;;;4.04;100.00
19797;BME280;10058;57.654;12.044;2023-02-23T04:31:24;100503.88;;;4.03;100.00
19797;BME280;10058;57.654;12.044;2023-02-23T04:33:50;100507.47;;;4.05;100.00
19797;BME280;10058;57.654;12.044;2023-02-23T04:36:15;100501.94;;;3.99;100.00
19797;BME280;10058;57.654;12.044;2023-02-23T04:38:41;100502.72;;;4.14;100.00
19797;BME280;10058;57.654;12.044;2023-02-23T04:41:06;100486.41;;;4.02;100.00
19797;BME280;10058;57.654;12.044;2023-02-23T04:43:32;100505.53;;;4.01;100.00
19797;BME280;10058;57.654;12.044;2023-02-23T04:49:19;100500.75;;;4.10;100.00
19797;BME280;10058;57.654;12.044;2023-02-23T04:51:44;100499.31;;;3.99;100.00
19797;BME280;10058;57.654;12.044;2023-02-23T04:54:10;100502.09;;;4.02;100.00
19797;BME280;10058;57.654;12.044;2023-02-23T04:56:35;100498.97;;;4.09;100.00
19797;BME280;10058;57.654;12.044;2023-02-23T04:59:00;100487.97;;;3.99;100.00
19797;BME280;10058;57.654;12.044;2023-02-23T05:01:26;100495.53;;;4.10;100.00
19797;BME280;10058;57.654;12.044;2023-02-23T05:03:53;100490.72;;;4.19;100.00
19797;BME280;10058;57.654;12.044;2023-02-23T05:09:40;100498.66;;;4.21;100.00
19797;BME280;10058;57.654;12.044;2023-02-23T05:12:05;100488.94;;;4.18;100.00
19797;BME280;10058;57.654;12.044;2023-02-23T05:14:31;100488.75;;;4.33;100.00
19797;BME280;10058;57.654;12.044;2023-02-23T05:16:56;100472.50;;;4.21;100.00
19797;BME280;10058;57.654;12.044;2023-02-23T05:19:22;100478.63;;;4.22;100.00
19797;BME280;10058;57.654;12.044;2023-02-23T05:21:47;100477.44;;;4.33;100.00
19797;BME280;10058;57.654;12.044;2023-02-23T05:27:35;100469.81;;;4.19;100.00
19797;BME280;10058;57.654;12.044;2023-02-23T05:30:01;100478.19;;;4.30;100.00
19797;BME280;10058;57.654;12.044;2023-02-23T05:32:26;100472.56;;;4.23;100.00
19797;BME280;10058;57.654;12.044;2023-02-23T05:34:52;100478.47;;;4.18;100.00
19797;BME280;10058;57.654;12.044;2023-02-23T05:37:17;100474.75;;;4.31;100.00
19797;BME280;10058;57.654;12.044;2023-02-23T05:39:45;100476.47;;;4.31;100.00
19797;BME280;10058;57.654;12.044;2023-02-23T05:42:10;100479.34;;;4.37;100.00
19797;BME280;10058;57.654;12.044;2023-02-23T05:44:35;100482.53;;;4.30;100.00
19797;BME280;10058;57.654;12.044;2023-02-23T05:50:23;100479.34;;;4.37;100.00
19797;BME280;10058;57.654;12.044;2023-02-23T05:52:49;100486.38;;;4.38;100.00
19797;BME280;10058;57.654;12.044;2023-02-23T05:55:14;100485.31;;;4.52;100.00
19797;BME280;10058;57.654;12.044;2023-02-23T05:57:39;100476.22;;;4.44;100.00
19797;BME280;10058;57.654;12.044;2023-02-23T06:00:06;100476.22;;;4.44;100.00
19797;BME280;10058;57.654;12.044;2023-02-23T06:02:32;100474.81;;;4.33;100.00
19797;BME280;10058;57.654;12.044;2023-02-23T06:04:58;100474.28;;;4.40;100.00
19797;BME280;10058;57.654;12.044;2023-02-23T06:09:51;100467.81;;;4.51;100.00
19797;BME280;10058;57.654;12.044;2023-02-23T06:12:16;100466.31;;;4.56;100.00
19797;BME280;10058;57.654;12.044;2023-02-23T06:14:41;100460.75;;;4.48;100.00
19797;BME280;10058;57.654;12.044;2023-02-23T06:17:07;100455.91;;;4.58;100.00
19797;BME280;10058;57.654;12.044;2023-02-23T06:19:32;100455.97;;;4.59;100.00
19797;BME280;10058;57.654;12.044;2023-02-23T06:21:58;100456.41;;;4.49;100.00
19797;BME280;10058;57.654;12.044;2023-02-23T06:24:23;100449.50;;;4.51;100.00
19797;BME280;10058;57.654;12.044;2023-02-23T06:26:49;100457.06;;;4.45;100.00
19797;BME280;10058;57.654;12.044;2023-02-23T06:29:14;100448.97;;;4.58;100.00
19797;BME280;10058;57.654;12.044;2023-02-23T06:31:41;100452.09;;;4.51;100.00
19797;BME280;10058;57.654;12.044;2023-02-23T06:34:06;100449.50;;;4.51;100.00
19797;BME280;10058;57.654;12.044;2023-02-23T06:36:32;100450.47;;;4.53;100.00
19797;BME280;10058;57.654;12.044;2023-02-23T06:38:57;100444.91;;;4.65;100.00
19797;BME280;10058;57.654;12.044;2023-02-23T06:41:23;100444.41;;;4.73;100.00
19797;BME280;10058;57.654;12.044;2023-02-23T06:43:49;100445.22;;;4.53;100.00
19797;BME280;10058;57.654;12.044;2023-02-23T06:46:14;100452.53;;;4.60;100.00
19797;BME280;10058;57.654;12.044;2023-02-23T06:48:40;100458.06;;;4.66;100.00
19797;BME280;10058;57.654;12.044;2023-02-23T06:51:05;100448.84;;;4.74;100.00
19797;BME280;10058;57.654;12.044;2023-02-23T06:53:30;100448.22;;;4.61;100.00
19797;BME280;10058;57.654;12.044;2023-02-23T06:55:56;100445.91;;;4.68;100.00
19797;BME280;10058;57.654;12.044;2023-02-23T06:58:21;100447.03;;;4.73;100.00
19797;BME280;10058;57.654;12.044;2023-02-23T07:00:46;100446.66;;;4.83;100.00
19797;BME280;10058;57.654;12.044;2023-02-23T07:03:12;100450.63;;;4.75;100.00
19797;BME280;10058;57.654;12.044;2023-02-23T07:05:37;100451.44;;;4.74;100.00
19797;BME280;10058;57.654;12.044;2023-02-23T07:08:02;100437.69;;;4.78;100.00
19797;BME280;10058;57.654;12.044;2023-02-23T07:10:28;100453.25;;;4.75;100.00
19797;BME280;10058;57.654;12.044;2023-02-23T07:12:53;100445.38;;;4.75;100.00
19797;BME280;10058;57.654;12.044;2023-02-23T07:15:19;100448.09;;;4.96;100.00
19797;BME280;10058;57.654;12.044;2023-02-23T07:17:45;100438.81;;;4.85;100.00
19797;BME280;10058;57.654;12.044;2023-02-23T07:20:13;100447.25;;;4.78;100.00
19797;BME280;10058;57.654;12.044;2023-02-23T07:22:39;100442.22;;;5.02;100.00
19797;BME280;10058;57.654;12.044;2023-02-23T07:25:05;100444.00;;;5.03;100.00
19797;BME280;10058;57.654;12.044;2023-02-23T07:27:30;100439.03;;;5.09;100.00
19797;BME280;10058;57.654;12.044;2023-02-23T07:29:55;100450.47;;;5.11;100.00
19797;BME280;10058;57.654;12.044;2023-02-23T07:32:21;100442.41;;;5.06;100.00
19797;BME280;10058;57.654;12.044;2023-02-23T07:34:46;100433.66;;;5.06;100.00
19797;BME280;10058;57.654;12.044;2023-02-23T07:37:12;100450.75;;;5.17;100.00
19797;BME280;10058;57.654;12.044;2023-02-23T07:39:37;100456.41;;;5.07;100.00
19797;BME280;10058;57.654;12.044;2023-02-23T07:42:02;100449.13;;;5.00;100.00
19797;BME280;10058;57.654;12.044;2023-02-23T07:44:28;100454.13;;;5.14;100.00
19797;BME280;10058;57.654;12.044;2023-02-23T07:46:53;100446.03;;;5.29;100.00
19797;BME280;10058;57.654;12.044;2023-02-23T07:49:18;100451.72;;;5.19;100.00
19797;BME280;10058;57.654;12.044;2023-02-23T07:51:44;100452.56;;;5.18;100.00
19797;BME280;10058;57.654;12.044;2023-02-23T07:54:09;100441.63;;;5.28;100.00
19797;BME280;10058;57.654;12.044;2023-02-23T07:56:34;100442.88;;;5.36;100.00
19797;BME280;10058;57.654;12.044;2023-02-23T07:59:00;100451.81;;;5.22;100.00
19797;BME280;10058;57.654;12.044;2023-02-23T08:01:25;100437.75;;;5.20;100.00
19797;BME280;10058;57.654;12.044;2023-02-23T08:03:50;100441.91;;;5.34;100.00
19797;BME280;10058;57.654;12.044;2023-02-23T08:06:17;100441.75;;;5.31;100.00
19797;BME280;10058;57.654;12.044;2023-02-23T08:08:43;100430.63;;;5.16;100.00
19797;BME280;10058;57.654;12.044;2023-02-23T08:11:08;100439.84;;;5.27;100.00
19797;BME280;10058;57.654;12.044;2023-02-23T08:13:35;100436.75;;;5.37;100.00
19797;BME280;10058;57.654;12.044;2023-02-23T08:16:01;100432.91;;;5.48;100.00
19797;BME280;10058;57.654;12.044;2023-02-23T08:18:27;100433.38;;;5.40;100.00
19797;BME280;10058;57.654;12.044;2023-02-23T08:21:03;100428.34;;;5.44;100.00
19797;BME280;10058;57.654;12.044;2023-02-23T08:23:30;100425.66;;;5.43;100.00
19797;BME280;10058;57.654;12.044;2023-02-23T08:25:56;100418.75;;;5.45;100.00
19797;BME280;10058;57.654;12.044;2023-02-23T08:28:22;100409.03;;;5.42;100.00
19797;BME280;10058;57.654;12.044;2023-02-23T08:30:48;100418.13;;;5.50;100.00
19797;BME280;10058;57.654;12.044;2023-02-23T08:33:14;100412.63;;;5.44;100.00
19797;BME280;10058;57.654;12.044;2023-02-23T08:35:39;100418.91;;;5.48;100.00
19797;BME280;10058;57.654;12.044;2023-02-23T08:38:04;100427.34;;;5.62;100.00
19797;BME280;10058;57.654;12.044;2023-02-23T08:40:29;100413.75;;;5.72;100.00
19797;BME280;10058;57.654;12.044;2023-02-23T08:42:55;100392.41;;;5.63;100.00
19797;BME280;10058;57.654;12.044;2023-02-23T08:45:20;100411.09;;;5.49;100.00
19797;BME280;10058;57.654;12.044;2023-02-23T08:47:45;100409.19;;;5.66;100.00
19797;BME280;10058;57.654;12.044;2023-02-23T08:50:12;100399.31;;;5.60;100.00
19797;BME280;10058;57.654;12.044;2023-02-23T08:52:37;100395.88;;;5.62;100.00
19797;BME280;10058;57.654;12.044;2023-02-23T08:55:03;100401.72;;;5.77;100.00
19797;BME280;10058;57.654;12.044;2023-02-23T08:57:32;100402.75;;;5.80;100.00
19797;BME280;10058;57.654;12.044;2023-02-23T08:59:57;100399.19;;;5.78;100.00
19797;BME280;10058;57.654;12.044;2023-02-23T09:02:23;100393.16;;;5.81;100.00
19797;BME280;10058;57.654;12.044;2023-02-23T09:04:48;100397.91;;;5.89;100.00
19797;BME280;10058;57.654;12.044;2023-02-23T09:07:15;100400.84;;;5.97;100.00
19797;BME280;10058;57.654;12.044;2023-02-23T09:09:41;100395.34;;;5.91;100.00
19797;BME280;10058;57.654;12.044;2023-02-23T09:12:06;100399.31;;;6.02;100.00
19797;BME280;10058;57.654;12.044;2023-02-23T09:14:32;100394.91;;;6.01;100.00
19797;BME280;10058;57.654;12.044;2023-02-23T09:16:57;100390.09;;;5.91;100.00
19797;BME280;10058;57.654;12.044;2023-02-23T09:19:23;100399.19;;;5.99;100.00
19797;BME280;10058;57.654;12.044;2023-02-23T09:21:48;100380.69;;;5.96;100.00
19797;BME280;10058;57.654;12.044;2023-02-23T09:24:13;100381.16;;;6.08;100.00
19797;BME280;10058;57.654;12.044;2023-02-23T09:26:39;100381.09;;;6.07;100.00
19797;BME280;10058;57.654;12.044;2023-02-23T09:29:05;100371.25;;;6.23;100.00
19797;BME280;10058;57.654;12.044;2023-02-23T09:31:31;100377.72;;;6.32;100.00
19797;BME280;10058;57.654;12.044;2023-02-23T09:33:57;100362.09;;;6.35;100.00
19797;BME280;10058;57.654;12.044;2023-02-23T09:36:24;100365.53;;;6.34;100.00
19797;BME280;10058;57.654;12.044;2023-02-23T09:38:52;100358.25;;;6.26;100.00
19797;BME280;10058;57.654;12.044;2023-02-23T09:43:54;100362.91;;;6.34;100.00
19797;BME280;10058;57.654;12.044;2023-02-23T09:49:00;100376.69;;;6.28;100.00
19797;BME280;10058;57.654;12.044;2023-02-23T09:51:27;100377.59;;;6.28;100.00
19797;BME280;10058;57.654;12.044;2023-02-23T09:53:56;100366.00;;;6.23;100.00
19797;BME280;10058;57.654;12.044;2023-02-23T09:56:36;100370.53;;;6.27;100.00
19797;BME280;10058;57.654;12.044;2023-02-23T09:59:05;100368.16;;;6.34;100.00
19797;BME280;10058;57.654;12.044;2023-02-23T10:04:06;100367.66;;;6.44;100.00
19797;BME280;10058;57.654;12.044;2023-02-23T10:06:35;100364.00;;;6.39;100.00
19797;BME280;10058;57.654;12.044;2023-02-23T10:09:17;100370.34;;;6.45;100.00
19797;BME280;10058;57.654;12.044;2023-02-23T10:11:54;100364.31;;;6.48;100.00
19797;BME280;10058;57.654;12.044;2023-02-23T10:14:38;100361.56;;;6.45;100.00
19797;BME280;10058;57.654;12.044;2023-02-23T10:17:23;100366.13;;;6.49;100.00
19797;BME280;10058;57.654;12.044;2023-02-23T10:19:55;100359.06;;;6.48;100.00
19797;BME280;10058;57.654;12.044;2023-02-23T10:22:25;100362.97;;;6.35;100.00
19797;BME280;10058;57.654;12.044;2023-02-23T10:24:57;100351.19;;;6.48;100.00
19797;BME280;10058;57.654;12.044;2023-02-23T10:27:35;100346.78;;;6.47;100.00
19797;BME280;10058;57.654;12.044;2023-02-23T10:30:03;100348.81;;;6.54;100.00
19797;BME280;10058;57.654;12.044;2023-02-23T10:35:22;100334.78;;;6.53;100.00
19797;BME280;10058;57.654;12.044;2023-02-23T10:37:50;100330.69;;;6.61;100.00
19797;BME280;10058;57.654;12.044;2023-02-23T10:40:18;100320.78;;;6.78;100.00
19797;BME280;10058;57.654;12.044;2023-02-23T10:42:45;100317.28;;;6.78;100.00
19797;BME280;10058;57.654;12.044;2023-02-23T10:45:15;100321.53;;;6.74;100.00
19797;BME280;10058;57.654;12.044;2023-02-23T10:47:49;100319.53;;;6.67;100.00
19797;BME280;10058;57.654;12.044;2023-02-23T10:54:32;100308.25;;;6.95;100.00
19797;BME280;10058;57.654;12.044;2023-02-23T10:56:50;100307.94;;;6.86;100.00
19797;BME280;10058;57.654;12.044;2023-02-23T10:59:20;100313.13;;;6.84;100.00
19797;BME280;10058;57.654;12.044;2023-02-23T11:01:45;100313.66;;;6.99;100.00
19797;BME280;10058;57.654;12.044;2023-02-23T11:04:23;100317.34;;;7.05;100.00
19797;BME280;10058;57.654;12.044;2023-02-23T11:10:25;100318.84;;;6.98;100.00
19797;BME280;10058;57.654;12.044;2023-02-23T11:12:51;100323.88;;;6.90;100.00
19797;BME280;10058;57.654;12.044;2023-02-23T11:17:57;100312.13;;;6.81;100.00
19797;BME280;10058;57.654;12.044;2023-02-23T11:23:11;100316.59;;;6.83;100.00
19797;BME280;10058;57.654;12.044;2023-02-23T11:29:11;100317.91;;;6.96;100.00
19797;BME280;10058;57.654;12.044;2023-02-23T11:37:45;100306.13;;;7.10;100.00
19797;BME280;10058;57.654;12.044;2023-02-23T11:40:28;100294.53;;;7.04;100.00
19797;BME280;10058;57.654;12.044;2023-02-23T11:49:08;100296.22;;;7.27;100.00
19797;BME280;10058;57.654;12.044;2023-02-23T11:51:39;100294.44;;;7.27;100.00
19797;BME280;10058;57.654;12.044;2023-02-23T11:54:07;100291.78;;;7.26;100.00
19797;BME280;10058;57.654;12.044;2023-02-23T11:56:47;100293.75;;;7.33;100.00
19797;BME280;10058;57.654;12.044;2023-02-23T11:59:17;100281.88;;;7.44;100.00
19797;BME280;10058;57.654;12.044;2023-02-23T12:01:47;100280.94;;;7.42;100.00
19797;BME280;10058;57.654;12.044;2023-02-23T12:07:40;100277.88;;;7.30;100.00
19797;BME280;10058;57.654;12.044;2023-02-23T12:12:47;100283.97;;;7.29;100.00
19797;BME280;10058;57.654;12.044;2023-02-23T12:18:16;100279.84;;;7.36;100.00
19797;BME280;10058;57.654;12.044;2023-02-23T12:20:45;100273.94;;;7.43;100.00
19797;BME280;10058;57.654;12.044;2023-02-23T12:23:17;100282.56;;;7.39;100.00
19797;BME280;10058;57.654;12.044;2023-02-23T12:29:19;100269.66;;;7.46;100.00
19797;BME280;10058;57.654;12.044;2023-02-23T12:32:03;100264.31;;;7.43;100.00
19797;BME280;10058;57.654;12.044;2023-02-23T12:39:50;100251.53;;;7.55;100.00
19797;BME280;10058;57.654;12.044;2023-02-23T12:42:36;100248.28;;;7.64;100.00
19797;BME280;10058;57.654;12.044;2023-02-23T12:48:48;100255.44;;;7.68;100.00
19797;BME280;10058;57.654;12.044;2023-02-23T12:51:49;100251.28;;;7.75;100.00
19797;BME280;10058;57.654;12.044;2023-02-23T12:54:16;100253.16;;;7.79;100.00
19797;BME280;10058;57.654;12.044;2023-02-23T12:59:50;100239.94;;;7.77;100.00
19797;BME280;10058;57.654;12.044;2023-02-23T13:02:24;100242.88;;;7.88;100.00
19797;BME280;10058;57.654;12.044;2023-02-23T13:08:32;100232.84;;;7.75;100.00
19797;BME280;10058;57.654;12.044;2023-02-23T13:11:15;100233.50;;;7.67;100.00
19797;BME280;10058;57.654;12.044;2023-02-23T13:16:18;100235.50;;;7.75;100.00
19797;BME280;10058;57.654;12.044;2023-02-23T13:29:45;100228.25;;;7.67;100.00
19797;BME280;10058;57.654;12.044;2023-02-23T13:32:16;100227.53;;;7.73;100.00
19797;BME280;10058;57.654;12.044;2023-02-23T13:34:49;100218.53;;;7.65;100.00
19797;BME280;10058;57.654;12.044;2023-02-23T13:37:18;100211.13;;;7.82;100.00
19797;BME280;10058;57.654;12.044;2023-02-23T13:39:53;100206.72;;;7.81;100.00
19797;BME280;10058;57.654;12.044;2023-02-23T13:42:31;100216.78;;;7.94;100.00
19797;BME280;10058;57.654;12.044;2023-02-23T13:48:38;100183.84;;;8.08;100.00
19797;BME280;10058;57.654;12.044;2023-02-23T13:51:40;100190.88;;;8.09;100.00
19797;BME280;10058;57.654;12.044;2023-02-23T13:56:48;100172.13;;;8.28;100.00
19797;BME280;10058;57.654;12.044;2023-02-23T13:59:18;100162.34;;;8.24;100.00
19797;BME280;10058;57.654;12.044;2023-02-23T14:01:47;100164.97;;;8.24;100.00
19797;BME280;10058;57.654;12.044;2023-02-23T14:04:19;100161.41;;;8.22;100.00
19797;BME280;10058;57.654;12.044;2023-02-23T14:10:13;100159.50;;;8.17;100.00
19797;BME280;10058;57.654;12.044;2023-02-23T14:12:42;100157.53;;;8.08;100.00
19797;BME280;10058;57.654;12.044;2023-02-23T14:17:56;100156.75;;;8.12;100.00
19797;BME280;10058;57.654;12.044;2023-02-23T14:29:22;100120.41;;;8.63;100.00
19797;BME280;10058;57.654;12.044;2023-02-23T14:34:19;100111.75;;;8.69;100.00
19797;BME280;10058;57.654;12.044;2023-02-23T14:36:47;100118.66;;;8.64;100.00
19797;BME280;10058;57.654;12.044;2023-02-23T14:39:21;100121.75;;;8.48;100.00
19797;BME280;10058;57.654;12.044;2023-02-23T14:41:53;100120.13;;;8.53;100.00
19797;BME280;10058;57.654;12.044;2023-02-23T14:47:46;100123.47;;;8.46;100.00
19797;BME280;10058;57.654;12.044;2023-02-23T14:50:24;100107.16;;;8.27;100.00
19797;BME280;10058;57.654;12.044;2023-02-23T14:52:53;100134.91;;;8.16;100.00
19797;BME280;10058;57.654;12.044;2023-02-23T14:55:26;100126.75;;;8.06;100.00
19797;BME280;10058;57.654;12.044;2023-02-23T14:57:52;100142.63;;;8.09;100.00
19797;BME280;10058;57.654;12.044;2023-02-23T15:00:25;100147.88;;;8.09;100.00
19797;BME280;10058;57.654;12.044;2023-02-23T15:02:54;100149.59;;;8.07;100.00
19797;BME280;10058;57.654;12.044;2023-02-23T15:08:44;100146.47;;;7.90;100.00
19797;BME280;10058;57.654;12.044;2023-02-23T15:11:11;100152.81;;;7.96;100.00
19797;BME280;10058;57.654;12.044;2023-02-23T15:13:40;100145.78;;;7.95;100.00
19797;BME280;10058;57.654;12.044;2023-02-23T15:16:10;100149.88;;;7.86;100.00
19797;BME280;10058;57.654;12.044;2023-02-23T15:18:39;100148.00;;;7.82;100.00
19797;BME280;10058;57.654;12.044;2023-02-23T15:21:11;100147.19;;;7.84;100.00
19797;BME280;10058;57.654;12.044;2023-02-23T15:23:38;100134.13;;;7.87;100.00
19797;BME280;10058;57.654;12.044;2023-02-23T15:26:27;100133.25;;;7.87;100.00
19797;BME280;10058;57.654;12.044;2023-02-23T15:29:04;100125.09;;;7.78;100.00
19797;BME280;10058;57.654;12.044;2023-02-23T15:31:29;100125.31;;;7.85;100.00
19797;BME280;10058;57.654;12.044;2023-02-23T15:33:55;100113.63;;;7.76;100.00
19797;BME280;10058;57.654;12.044;2023-02-23T15:36:31;100123.47;;;7.83;100.00
19797;BME280;10058;57.654;12.044;2023-02-23T15:39:00;100114.56;;;7.78;100.00
19797;BME280;10058;57.654;12.044;2023-02-23T15:41:33;100116.19;;;7.73;100.00
19797;BME280;10058;57.654;12.044;2023-02-23T15:44:16;100113.00;;;7.84;100.00
19797;BME280;10058;57.654;12.044;2023-02-23T15:46:43;100091.66;;;7.74;100.00
19797;BME280;10058;57.654;12.044;2023-02-23T15:49:11;100100.50;;;7.76;100.00
19797;BME280;10058;57.654;12.044;2023-02-23T15:51:41;100103.88;;;7.72;100.00
19797;BME280;10058;57.654;12.044;2023-02-23T15:54:21;100107.53;;;7.77;100.00
19797;BME280;10058;57.654;12.044;2023-02-23T15:56:53;100110.63;;;7.63;100.00
19797;BME280;10058;57.654;12.044;2023-02-23T15:59:27;100105.66;;;7.73;100.00
19797;BME280;10058;57.654;12.044;2023-02-23T16:01:53;100099.47;;;7.71;100.00
19797;BME280;10058;57.654;12.044;2023-02-23T16:04:21;100101.44;;;7.78;100.00
19797;BME280;10058;57.654;12.044;2023-02-23T16:09:24;100104.53;;;7.64;100.00